createdAt,value
2017-08-27T00:00:59.339Z,100048.30
2017-08-27T00:03:25.780Z,100042.41
2017-08-27T00:05:52.142Z,100041.86
2017-08-27T00:08:18.789Z,100046.85
2017-08-27T00:10:45.130Z,100037.74
2017-08-27T00:13:11.720Z,100035.67
2017-08-27T00:15:38.261Z,100037.88
2017-08-27T00:18:04.933Z,100037.48
2017-08-27T00:20:31.396Z,100032.12
2017-08-27T00:22:57.866Z,100030.73
2017-08-27T00:25:24.404Z,100031.72
2017-08-27T00:27:51.022Z,100032.26
2017-08-27T00:30:17.507Z,100032.54
2017-08-27T00:32:43.940Z,100032.22
2017-08-27T00:35:10.558Z,100023.08
2017-08-27T00:37:37.217Z,100028.91
2017-08-27T00:40:03.651Z,100022.52
2017-08-27T00:42:30.290Z,100025.38
2017-08-27T00:44:56.794Z,100023.19
2017-08-27T00:47:23.309Z,100018.62
2017-08-27T00:49:49.795Z,100022.80
2017-08-27T00:52:16.427Z,100015.39
2017-08-27T00:54:43.059Z,100015.19
2017-08-27T00:57:09.676Z,100015.35
2017-08-27T00:59:36.348Z,100013.59
2017-08-27T01:02:02.779Z,100019.53
2017-08-27T01:04:29.418Z,100013.15
2017-08-27T01:06:56.053Z,100013.48
2017-08-27T01:09:22.566Z,100011.41
2017-08-27T01:11:49.129Z,100013.76
2017-08-27T01:14:15.765Z,100014.97
2017-08-27T01:16:42.385Z,100013.45
2017-08-27T01:19:08.836Z,100013.08
2017-08-27T01:21:35.446Z,100011.47
2017-08-27T01:24:01.907Z,100013.65
2017-08-27T01:26:28.504Z,100013.37
2017-08-27T01:28:55.185Z,100009.03
2017-08-27T01:31:21.691Z,100009.98
2017-08-27T01:33:48.460Z,100010.47
2017-08-27T01:36:14.916Z,100009.65
2017-08-27T01:38:41.513Z,100011.04
2017-08-27T01:41:08.131Z,100013.78
2017-08-27T01:43:34.609Z,100013.30
2017-08-27T01:46:01.092Z,100015.10
2017-08-27T01:48:27.880Z,100011.95
2017-08-27T01:50:54.518Z,100018.45
2017-08-27T01:53:20.956Z,100023.30
2017-08-27T01:55:47.591Z,100021.25
2017-08-27T01:58:14.200Z,100016.02
2017-08-27T02:00:40.872Z,100015.38
2017-08-27T02:03:07.505Z,100018.98
2017-08-27T02:05:34.126Z,100020.25
2017-08-27T02:08:00.575Z,100017.86
2017-08-27T02:10:27.179Z,100019.33
2017-08-27T02:12:53.651Z,100019.94
2017-08-27T02:15:20.287Z,100017.67
2017-08-27T02:17:46.719Z,100019.55
2017-08-27T02:20:13.147Z,100020.75
2017-08-27T02:22:39.789Z,100020.91
2017-08-27T02:25:06.429Z,100024.41
2017-08-27T02:27:33.054Z,100018.52
2017-08-27T02:29:59.504Z,100011.70
2017-08-27T02:32:25.929Z,100012.44
2017-08-27T02:34:52.248Z,100011.33
2017-08-27T02:37:18.564Z,100016.06
2017-08-27T02:39:44.939Z,100024.63
2017-08-27T02:42:11.242Z,100017.92
2017-08-27T02:44:37.541Z,100022.78
2017-08-27T02:47:03.901Z,100018.00
2017-08-27T02:49:30.223Z,100022.35
2017-08-27T02:51:56.515Z,100018.77
2017-08-27T02:54:22.897Z,100029.26
2017-08-27T02:56:49.218Z,100024.69
2017-08-27T02:59:15.540Z,100028.32
2017-08-27T03:01:41.899Z,100027.10
2017-08-27T03:04:08.231Z,100029.37
2017-08-27T03:06:34.541Z,100025.13
2017-08-27T03:09:01.230Z,100033.73
2017-08-27T03:11:27.569Z,100035.52
2017-08-27T03:13:53.884Z,100038.20
2017-08-27T03:16:20.239Z,100040.30
2017-08-27T03:18:46.555Z,100037.07
2017-08-27T03:21:12.875Z,100041.58
2017-08-27T03:23:39.254Z,100041.38
2017-08-27T03:26:05.549Z,100039.27
2017-08-27T03:28:31.854Z,100037.98
2017-08-27T03:30:58.209Z,100031.95
2017-08-27T03:33:24.513Z,100034.12
2017-08-27T03:35:50.834Z,100032.52
2017-08-27T03:38:17.196Z,100030.11
2017-08-27T03:40:43.494Z,100033.30
2017-08-27T03:43:10.041Z,100028.97
2017-08-27T03:45:36.490Z,100025.31
2017-08-27T03:48:02.906Z,100037.47
2017-08-27T03:50:29.372Z,100029.77
2017-08-27T03:52:55.947Z,100027.44
2017-08-27T03:55:22.619Z,100024.52
2017-08-27T03:57:49.107Z,100029.47
2017-08-27T04:00:15.895Z,100027.59
2017-08-27T04:02:42.515Z,100023.95
2017-08-27T04:05:09.169Z,100014.20
2017-08-27T04:07:35.809Z,100018.64
2017-08-27T04:10:02.441Z,100004.33
2017-08-27T04:12:28.935Z,100012.70
2017-08-27T04:14:55.474Z,100007.53
2017-08-27T04:17:21.940Z,100006.19
2017-08-27T04:19:48.386Z,100000.43
2017-08-27T04:22:14.974Z,100004.82
2017-08-27T04:24:41.465Z,100002.36
2017-08-27T04:27:07.935Z,100005.67
2017-08-27T04:29:34.475Z,100009.73
2017-08-27T04:32:01.165Z,100010.30
2017-08-27T04:34:27.593Z,100006.84
2017-08-27T04:36:54.171Z,100012.55
2017-08-27T04:39:20.671Z,100002.08
2017-08-27T04:41:47.097Z,100005.42
2017-08-27T04:44:13.704Z,100000.89
2017-08-27T04:46:40.381Z,100004.73
2017-08-27T04:49:06.864Z,100003.59
2017-08-27T04:51:33.284Z,100006.41
2017-08-27T04:53:59.682Z,100004.59
2017-08-27T04:56:26.314Z,100010.07
2017-08-27T04:58:52.904Z,100006.37
2017-08-27T05:01:19.593Z,100007.80
2017-08-27T05:03:46.233Z,100014.92
2017-08-27T05:06:12.677Z,100006.69
2017-08-27T05:08:39.150Z,100013.85
2017-08-27T05:11:05.593Z,100016.36
2017-08-27T05:13:32.134Z,100013.48
2017-08-27T05:15:58.800Z,100013.73
2017-08-27T05:18:25.296Z,100008.48
2017-08-27T05:20:51.834Z,100008.94
2017-08-27T05:23:18.300Z,100013.64
2017-08-27T05:25:44.952Z,100004.95
2017-08-27T05:28:11.591Z,100007.02
2017-08-27T05:30:38.203Z,100008.73
2017-08-27T05:33:04.866Z,100003.93
2017-08-27T05:35:31.296Z,99997.97
2017-08-27T05:37:57.802Z,100006.29
2017-08-27T05:40:24.223Z,99997.91
2017-08-27T05:42:50.764Z,99997.17
2017-08-27T05:45:17.442Z,99993.97
2017-08-27T05:47:44.084Z,99988.29
2017-08-27T05:50:10.513Z,99984.23
2017-08-27T05:52:37.054Z,99989.45
2017-08-27T05:55:03.385Z,99993.64
2017-08-27T05:57:30.018Z,99992.27
2017-08-27T05:59:56.635Z,99987.91
2017-08-27T06:02:23.100Z,99988.77
2017-08-27T06:04:49.521Z,99984.22
2017-08-27T06:07:15.951Z,99980.58
2017-08-27T06:09:42.578Z,99979.16
2017-08-27T06:12:09.027Z,99969.66
2017-08-27T06:14:35.462Z,99979.11
2017-08-27T06:17:01.895Z,99978.63
2017-08-27T06:19:28.419Z,99981.09
2017-08-27T06:21:54.915Z,99977.37
2017-08-27T06:24:21.400Z,99974.17
2017-08-27T06:26:48.047Z,99975.14
2017-08-27T06:29:14.476Z,99976.55
2017-08-27T06:31:40.967Z,99976.37
2017-08-27T06:34:07.415Z,99966.30
2017-08-27T06:36:33.765Z,99963.76
2017-08-27T06:39:00.387Z,99962.48
2017-08-27T06:41:26.744Z,99959.06
2017-08-27T06:43:53.276Z,99962.47
2017-08-27T06:46:19.641Z,99961.16
2017-08-27T06:48:46.092Z,99949.69
2017-08-27T06:51:12.488Z,99955.28
2017-08-27T06:53:38.860Z,99949.26
2017-08-27T06:56:05.296Z,99955.27
2017-08-27T06:58:31.657Z,99949.10
2017-08-27T07:00:58.057Z,99946.33
2017-08-27T07:03:24.515Z,99944.69
2017-08-27T07:05:50.897Z,99943.88
2017-08-27T07:08:17.286Z,99945.36
2017-08-27T07:10:43.719Z,99933.88
2017-08-27T07:13:10.121Z,99935.44
2017-08-27T07:15:36.559Z,99930.60
2017-08-27T07:18:03.006Z,99921.40
2017-08-27T07:20:29.394Z,99916.67
2017-08-27T07:22:55.803Z,99919.68
2017-08-27T07:25:22.224Z,99919.68
2017-08-27T07:27:48.615Z,99919.50
2017-08-27T07:30:15.154Z,99917.52
2017-08-27T07:32:41.790Z,99919.95
2017-08-27T07:35:08.373Z,99917.94
2017-08-27T07:37:34.973Z,99912.28
2017-08-27T07:40:01.447Z,99915.66
2017-08-27T07:42:28.086Z,99906.90
2017-08-27T07:44:54.723Z,99900.55
2017-08-27T07:47:21.452Z,99907.91
2017-08-27T07:49:48.203Z,99902.59
2017-08-27T07:52:14.842Z,99902.72
2017-08-27T07:54:41.650Z,99904.83
2017-08-27T07:57:08.169Z,99896.88
2017-08-27T07:59:34.547Z,99894.40
2017-08-27T08:02:01.003Z,99896.07
2017-08-27T08:04:27.382Z,99885.16
2017-08-27T08:06:53.744Z,99884.31
2017-08-27T08:09:20.431Z,99886.42
2017-08-27T08:11:46.976Z,99884.06
2017-08-27T08:14:13.740Z,99878.74
2017-08-27T08:16:40.356Z,99873.74
2017-08-27T08:19:06.734Z,99870.95
2017-08-27T08:21:33.471Z,99871.06
2017-08-27T08:24:00.317Z,99863.57
2017-08-27T08:26:26.753Z,99865.73
2017-08-27T08:28:53.370Z,99861.16
2017-08-27T08:31:20.234Z,99857.95
2017-08-27T08:33:46.869Z,99857.52
2017-08-27T08:36:13.510Z,99859.48
2017-08-27T08:38:39.943Z,99849.36
2017-08-27T08:41:06.553Z,99857.29
2017-08-27T08:43:33.076Z,99854.24
2017-08-27T08:45:59.651Z,99851.31
2017-08-27T08:48:26.236Z,99849.23
2017-08-27T08:50:52.778Z,99843.25
2017-08-27T08:53:19.361Z,99845.73
2017-08-27T08:55:45.834Z,99844.06
2017-08-27T08:58:12.375Z,99839.28
2017-08-27T09:00:39.022Z,99840.42
2017-08-27T09:03:05.537Z,99836.25
2017-08-27T09:05:32.105Z,99830.86
2017-08-27T09:07:58.770Z,99827.08
2017-08-27T09:10:25.136Z,99823.73
2017-08-27T09:12:51.535Z,99827.19
2017-08-27T09:15:18.110Z,99817.21
2017-08-27T09:17:44.459Z,99815.20
2017-08-27T09:20:11.109Z,99811.70
2017-08-27T09:22:37.584Z,99804.26
2017-08-27T09:25:04.631Z,99818.75
2017-08-27T09:27:31.069Z,99812.03
2017-08-27T09:29:57.483Z,99811.77
2017-08-27T09:32:24.187Z,99803.17
2017-08-27T09:34:50.841Z,99802.41
2017-08-27T09:37:17.617Z,99800.36
2017-08-27T09:39:44.060Z,99798.06
2017-08-27T09:42:10.687Z,99797.70
2017-08-27T09:44:37.122Z,99793.33
2017-08-27T09:47:03.558Z,99797.98
2017-08-27T09:49:29.983Z,99793.56
2017-08-27T09:51:56.425Z,99789.02
2017-08-27T09:54:22.848Z,99786.30
2017-08-27T09:56:49.285Z,99783.66
2017-08-27T09:59:15.892Z,99777.02
2017-08-27T10:01:42.408Z,99774.95
2017-08-27T10:04:09.052Z,99780.53
2017-08-27T10:06:35.821Z,99773.41
2017-08-27T10:09:02.341Z,99769.31
2017-08-27T10:11:28.903Z,99767.30
2017-08-27T10:13:55.365Z,99766.47
2017-08-27T10:16:21.808Z,99771.41
2017-08-27T10:18:48.616Z,99762.69
2017-08-27T10:21:14.975Z,99756.45
2017-08-27T10:23:41.690Z,99762.64
2017-08-27T10:26:08.534Z,99768.52
2017-08-27T10:28:35.028Z,99768.81
2017-08-27T10:31:01.603Z,99760.47
2017-08-27T10:33:28.433Z,99765.27
2017-08-27T10:35:54.882Z,99761.22
2017-08-27T10:38:21.497Z,99755.92
2017-08-27T10:40:48.146Z,99757.87
2017-08-27T10:43:14.577Z,99762.63
2017-08-27T10:45:41.021Z,99752.76
2017-08-27T10:48:07.427Z,99750.77
2017-08-27T10:50:33.784Z,99745.33
2017-08-27T10:53:00.150Z,99746.41
2017-08-27T10:55:26.559Z,99748.55
2017-08-27T10:57:52.949Z,99745.58
2017-08-27T11:00:19.312Z,99740.97
2017-08-27T11:02:45.733Z,99730.50
2017-08-27T11:05:12.175Z,99732.33
2017-08-27T11:07:38.706Z,99731.27
2017-08-27T11:10:05.143Z,99741.16
2017-08-27T11:12:31.510Z,99729.09
2017-08-27T11:14:57.882Z,99727.48
2017-08-27T11:17:24.305Z,99723.98
2017-08-27T11:19:50.677Z,99720.72
2017-08-27T11:22:17.044Z,99710.00
2017-08-27T11:24:43.458Z,99708.79
2017-08-27T11:27:09.834Z,99710.13
2017-08-27T11:29:36.231Z,99706.69
2017-08-27T11:32:03.073Z,99696.75
2017-08-27T11:34:30.753Z,99693.42
2017-08-27T11:36:58.170Z,99693.20
2017-08-27T11:39:25.281Z,99685.59
2017-08-27T11:41:52.303Z,99688.07
2017-08-27T11:44:19.344Z,99693.27
2017-08-27T11:46:46.888Z,99681.39
2017-08-27T11:49:13.391Z,99676.23
2017-08-27T11:51:39.748Z,99680.84
2017-08-27T11:54:06.147Z,99681.97
2017-08-27T11:56:32.519Z,99673.37
2017-08-27T11:58:58.876Z,99664.48
2017-08-27T12:01:25.292Z,99662.38
2017-08-27T12:03:51.661Z,99660.98
2017-08-27T12:06:18.028Z,99654.66
2017-08-27T12:08:44.454Z,99651.61
2017-08-27T12:11:10.831Z,99648.92
2017-08-27T12:13:37.206Z,99644.16
2017-08-27T12:16:03.647Z,99635.77
2017-08-27T12:18:30.020Z,99636.66
2017-08-27T12:20:56.391Z,99636.63
2017-08-27T12:23:22.815Z,99628.91
2017-08-27T12:25:49.177Z,99624.00
2017-08-27T12:28:15.556Z,99625.23
2017-08-27T12:30:41.967Z,99626.25
2017-08-27T12:33:08.360Z,99621.37
2017-08-27T12:35:34.716Z,99625.48
2017-08-27T12:38:01.132Z,99624.75
2017-08-27T12:40:27.507Z,99619.63
2017-08-27T12:42:53.865Z,99619.75
2017-08-27T12:45:20.277Z,99626.55
2017-08-27T12:47:46.646Z,99625.78
2017-08-27T12:50:13.005Z,99621.97
2017-08-27T12:52:39.424Z,99608.84
2017-08-27T12:55:05.793Z,99615.13
2017-08-27T12:57:32.165Z,99618.03
2017-08-27T12:59:58.586Z,99607.07
2017-08-27T13:02:24.971Z,99608.25
2017-08-27T13:04:51.411Z,99608.59
2017-08-27T13:07:17.852Z,99605.16
2017-08-27T13:09:44.207Z,99603.63
2017-08-27T13:12:10.709Z,99599.10
2017-08-27T13:14:37.106Z,99600.48
2017-08-27T13:17:03.473Z,99606.80
2017-08-27T13:19:29.850Z,99602.14
2017-08-27T13:21:56.286Z,99589.34
2017-08-27T13:24:22.652Z,99575.67
2017-08-27T13:26:49.024Z,99584.97
2017-08-27T13:29:15.438Z,99592.61
2017-08-27T13:31:41.810Z,99590.55
2017-08-27T13:34:08.169Z,99583.42
2017-08-27T13:36:34.696Z,99580.58
2017-08-27T13:39:01.167Z,99582.25
2017-08-27T13:41:27.534Z,99569.38
2017-08-27T13:43:53.985Z,99578.23
2017-08-27T13:46:20.448Z,99575.50
2017-08-27T13:48:47.083Z,99573.36
2017-08-27T13:51:13.680Z,99566.59
2017-08-27T13:53:40.050Z,99566.23
2017-08-27T13:56:06.665Z,99564.31
2017-08-27T13:58:33.242Z,99559.30
2017-08-27T14:00:59.666Z,99562.14
2017-08-27T14:03:26.045Z,99553.18
2017-08-27T14:05:52.547Z,99551.99
2017-08-27T14:08:19.131Z,99546.92
2017-08-27T14:10:45.615Z,99549.84
2017-08-27T14:13:12.253Z,99554.57
2017-08-27T14:15:38.758Z,99558.54
2017-08-27T14:18:05.358Z,99545.67
2017-08-27T14:20:31.800Z,99550.85
2017-08-27T14:22:58.359Z,99550.16
2017-08-27T14:25:25.039Z,99546.70
2017-08-27T14:27:51.666Z,99549.56
2017-08-27T14:30:18.286Z,99555.30
2017-08-27T14:32:44.805Z,99545.19
2017-08-27T14:35:11.180Z,99550.56
2017-08-27T14:37:37.608Z,99543.77
2017-08-27T14:40:04.231Z,99542.73
2017-08-27T14:42:30.848Z,99547.28
2017-08-27T14:44:57.530Z,99543.90
2017-08-27T14:47:24.133Z,99542.21
2017-08-27T14:49:50.776Z,99533.77
2017-08-27T14:52:17.237Z,99536.48
2017-08-27T14:54:43.666Z,99535.61
2017-08-27T14:57:10.353Z,99533.14
2017-08-27T14:59:37.119Z,99531.42
2017-08-27T15:02:03.634Z,99535.70
2017-08-27T15:04:29.969Z,99530.22
2017-08-27T15:06:56.445Z,99527.71
2017-08-27T15:09:22.943Z,99530.84
2017-08-27T15:11:49.520Z,99522.16
2017-08-27T15:14:15.864Z,99523.66
2017-08-27T15:16:42.151Z,99522.55
2017-08-27T15:19:08.608Z,99512.19
2017-08-27T15:21:34.893Z,99513.63
2017-08-27T15:24:01.172Z,99513.52
2017-08-27T15:26:27.762Z,99507.30
2017-08-27T15:28:54.350Z,99503.47
2017-08-27T15:31:20.640Z,99511.80
2017-08-27T15:33:46.992Z,99505.53
2017-08-27T15:36:13.439Z,99508.92
2017-08-27T15:38:39.866Z,99507.27
2017-08-27T15:41:06.317Z,99500.44
2017-08-27T15:43:32.932Z,99503.48
2017-08-27T15:45:59.591Z,99505.25
2017-08-27T15:48:26.164Z,99506.89
2017-08-27T15:50:52.711Z,99506.58
2017-08-27T15:53:19.298Z,99504.39
2017-08-27T15:55:45.938Z,99501.06
2017-08-27T15:58:12.535Z,99499.83
2017-08-27T16:00:39.207Z,99508.14
2017-08-27T16:03:05.849Z,99499.88
2017-08-27T16:05:32.464Z,99501.52
2017-08-27T16:07:58.761Z,99497.73
2017-08-27T16:10:25.175Z,99500.97
2017-08-27T16:12:51.646Z,99501.27
2017-08-27T16:15:18.156Z,99500.50
2017-08-27T16:17:44.801Z,99503.55
2017-08-27T16:20:11.495Z,99506.64
2017-08-27T16:22:37.983Z,99507.23
2017-08-27T16:25:04.325Z,99501.74
2017-08-27T16:27:30.970Z,99511.78
2017-08-27T16:29:57.636Z,99515.88
2017-08-27T16:32:24.378Z,99512.35
2017-08-27T16:34:50.806Z,99518.31
2017-08-27T16:37:17.441Z,99513.26
2017-08-27T16:39:43.890Z,99511.68
2017-08-27T16:42:10.499Z,99521.20
2017-08-27T16:44:37.141Z,99520.08
2017-08-27T16:47:03.659Z,99525.70
2017-08-27T16:49:29.951Z,99519.38
2017-08-27T16:51:56.256Z,99522.75
2017-08-27T16:54:22.837Z,99527.09
2017-08-27T16:56:49.324Z,99520.91
2017-08-27T16:59:15.743Z,99515.59
2017-08-27T17:01:42.236Z,99520.78
2017-08-27T17:04:08.616Z,99520.86
2017-08-27T17:06:34.887Z,99518.09
2017-08-27T17:09:01.314Z,99516.64
2017-08-27T17:11:27.641Z,99516.02
2017-08-27T17:13:53.945Z,99515.33
2017-08-27T17:16:20.387Z,99519.03
2017-08-27T17:18:46.711Z,99512.63
2017-08-27T17:21:13.046Z,99515.43
2017-08-27T17:23:39.477Z,99518.54
2017-08-27T17:26:05.908Z,99517.78
2017-08-27T17:28:32.343Z,99512.16
2017-08-27T17:30:58.778Z,99520.66
2017-08-27T17:33:25.266Z,99522.61
2017-08-27T17:35:51.546Z,99523.18
2017-08-27T17:38:18.269Z,99523.44
2017-08-27T17:40:44.548Z,99531.16
2017-08-27T17:43:10.931Z,99530.34
2017-08-27T17:45:37.377Z,99537.15
2017-08-27T17:48:03.801Z,99540.69
2017-08-27T17:50:30.448Z,99541.28
2017-08-27T17:52:57.092Z,99540.33
2017-08-27T17:55:23.692Z,99547.36
2017-08-27T17:57:49.957Z,99554.75
2017-08-27T18:00:16.349Z,99548.81
2017-08-27T18:02:42.995Z,99547.38
2017-08-27T18:05:09.663Z,99549.84
2017-08-27T18:07:36.003Z,99551.48
2017-08-27T18:10:02.470Z,99552.98
2017-08-27T18:12:29.139Z,99557.20
2017-08-27T18:14:55.600Z,99560.80
2017-08-27T18:17:22.041Z,99563.67
2017-08-27T18:19:48.471Z,99560.14
2017-08-27T18:22:15.109Z,99568.15
2017-08-27T18:24:41.725Z,99558.57
2017-08-27T18:27:08.021Z,99561.66
2017-08-27T18:29:34.438Z,99564.78
2017-08-27T18:32:00.733Z,99565.83
2017-08-27T18:34:27.070Z,99557.44
2017-08-27T18:36:53.402Z,99563.77
2017-08-27T18:39:19.877Z,99571.95
2017-08-27T18:41:46.365Z,99569.89
2017-08-27T18:44:12.761Z,99575.41
2017-08-27T18:46:39.200Z,99572.36
2017-08-27T18:49:05.481Z,99572.45
2017-08-27T18:51:31.886Z,99571.50
2017-08-27T18:53:58.164Z,99572.12
2017-08-27T18:56:24.569Z,99578.44
2017-08-27T18:58:51.017Z,99577.40
2017-08-27T19:01:17.490Z,99578.05
2017-08-27T19:03:44.022Z,99579.19
2017-08-27T19:06:10.640Z,99580.57
2017-08-27T19:08:36.929Z,99575.98
2017-08-27T19:11:03.251Z,99579.36
2017-08-27T19:13:29.843Z,99582.19
2017-08-27T19:15:56.288Z,99583.02
2017-08-27T19:18:22.689Z,99586.69
2017-08-27T19:20:49.026Z,99584.17
2017-08-27T19:23:15.321Z,99589.19
2017-08-27T19:25:41.927Z,99592.36
2017-08-27T19:28:08.567Z,99589.96
2017-08-27T19:30:35.212Z,99593.83
2017-08-27T19:33:01.492Z,99593.27
2017-08-27T19:35:27.903Z,99589.66
2017-08-27T19:37:54.195Z,99588.37
2017-08-27T19:40:20.605Z,99584.23
2017-08-27T19:42:46.993Z,99602.15
2017-08-27T19:45:13.610Z,99596.77
2017-08-27T19:47:40.070Z,99597.48
2017-08-27T19:50:06.498Z,99597.77
2017-08-27T19:52:32.933Z,99593.14
2017-08-27T19:54:59.571Z,99596.72
2017-08-27T19:57:26.023Z,99589.98
2017-08-27T19:59:52.438Z,99590.13
2017-08-27T20:02:18.764Z,99589.59
2017-08-27T20:04:45.149Z,99591.22
2017-08-27T20:07:11.537Z,99587.88
2017-08-27T20:09:37.810Z,99590.73
2017-08-27T20:12:04.578Z,99591.06
2017-08-27T20:14:31.029Z,99596.24
2017-08-27T20:16:57.456Z,99591.95
2017-08-27T20:19:24.086Z,99593.48
2017-08-27T20:21:50.539Z,99589.16
2017-08-27T20:24:17.179Z,99591.61
2017-08-27T20:26:43.614Z,99587.92
2017-08-27T20:29:10.095Z,99588.86
2017-08-27T20:31:36.468Z,99593.34
2017-08-27T20:34:02.911Z,99584.13
2017-08-27T20:36:29.340Z,99584.39
2017-08-27T20:38:55.984Z,99582.93
2017-08-27T20:41:22.626Z,99587.14
2017-08-27T20:43:48.924Z,99592.81
2017-08-27T20:46:15.283Z,99587.00
2017-08-27T20:48:41.704Z,99594.17
2017-08-27T20:51:08.353Z,99590.80
2017-08-27T20:53:34.790Z,99590.92
2017-08-27T20:56:01.386Z,99586.17
2017-08-27T20:58:27.852Z,99592.95
2017-08-27T21:00:54.492Z,99597.83
2017-08-27T21:03:20.933Z,99590.10
2017-08-27T21:05:47.366Z,99592.26
2017-08-27T21:08:13.971Z,99591.98
2017-08-27T21:10:40.425Z,99588.20
2017-08-27T21:13:07.054Z,99588.73
2017-08-27T21:15:33.492Z,99595.63
2017-08-27T21:17:59.857Z,99593.86
2017-08-27T21:20:26.377Z,99601.98
2017-08-27T21:22:52.799Z,99603.06
2017-08-27T21:25:19.448Z,99607.88
2017-08-27T21:27:46.057Z,99607.58
2017-08-27T21:30:12.700Z,99602.55
2017-08-27T21:32:39.153Z,99602.41
2017-08-27T21:35:05.636Z,99603.03
2017-08-27T21:37:32.080Z,99601.48
2017-08-27T21:39:58.454Z,99612.16
2017-08-27T21:42:24.989Z,99605.66
2017-08-27T21:44:51.309Z,99604.40
2017-08-27T21:47:17.941Z,99603.86
2017-08-27T21:49:44.226Z,99609.48
2017-08-27T21:52:10.618Z,99609.34
2017-08-27T21:54:37.247Z,99609.07
2017-08-27T21:57:03.685Z,99614.86
2017-08-27T21:59:30.335Z,99611.88
2017-08-27T22:01:56.952Z,99606.33
2017-08-27T22:04:23.612Z,99614.73
2017-08-27T22:06:50.231Z,99619.87
2017-08-27T22:09:16.881Z,99617.30
2017-08-27T22:11:43.485Z,99618.55
2017-08-27T22:14:10.132Z,99613.81
2017-08-27T22:16:36.803Z,99609.91
2017-08-27T22:19:03.414Z,99594.98
2017-08-27T22:21:29.795Z,99609.64
2017-08-27T22:23:56.303Z,99607.31
2017-08-27T22:26:22.740Z,99611.20
2017-08-27T22:28:49.374Z,99609.81
2017-08-27T22:31:15.810Z,99601.69
2017-08-27T22:33:42.443Z,99609.69
2017-08-27T22:36:08.881Z,99603.41
2017-08-27T22:38:35.501Z,99599.28
2017-08-27T22:41:02.115Z,99603.39
2017-08-27T22:43:28.735Z,99599.20
2017-08-27T22:45:55.429Z,99604.25
2017-08-27T22:48:21.731Z,99595.92
2017-08-27T22:50:48.296Z,99604.16
2017-08-27T22:53:14.807Z,99599.20
2017-08-27T22:55:41.154Z,99594.28
2017-08-27T22:58:07.600Z,99598.13
2017-08-27T23:00:34.031Z,99597.00
2017-08-27T23:03:00.668Z,99595.05
2017-08-27T23:05:27.305Z,99593.75
2017-08-27T23:07:53.935Z,99594.11
2017-08-27T23:10:20.588Z,99591.48
2017-08-27T23:12:47.223Z,99585.95
2017-08-27T23:15:13.650Z,99587.20
2017-08-27T23:17:40.275Z,99582.97
2017-08-27T23:20:06.731Z,99564.03
2017-08-27T23:22:33.211Z,99570.77
2017-08-27T23:24:59.583Z,99569.77
2017-08-27T23:27:26.234Z,99566.31
2017-08-27T23:29:52.666Z,99560.13
2017-08-27T23:32:19.275Z,99566.08
2017-08-27T23:34:45.741Z,99569.02
2017-08-27T23:37:12.358Z,99569.91
2017-08-27T23:39:38.809Z,99568.47
2017-08-27T23:42:05.449Z,99562.48
2017-08-27T23:44:31.885Z,99562.09
2017-08-27T23:46:58.165Z,99563.58
2017-08-27T23:49:24.695Z,99569.26
2017-08-27T23:51:51.166Z,99570.44
2017-08-27T23:54:17.820Z,99567.91
2017-08-27T23:56:44.458Z,99565.05
2017-08-27T23:59:10.941Z,99566.01
